sensor_id;sensor_type;location;lat;lon;timestamp;pressure;altitude;pressure_sealevel;temperature;humidity
64460;BME280;50828;53.756;21.140;2023-02-22T00:03:30;99677.64;;;1.36;74.47
64460;BME280;50828;53.756;21.140;2023-02-22T00:08:40;99678.69;;;1.34;74.37
64460;BME280;50828;53.756;21.140;2023-02-22T00:13:48;99686.33;;;1.33;74.34
64460;BME280;50828;53.756;21.140;2023-02-22T00:18:57;99690.14;;;1.33;74.42
64460;BME280;50828;53.756;21.140;2023-02-22T00:24:08;99695.02;;;1.32;74.43
64460;BME280;50828;53.756;21.140;2023-02-22T00:29:29;99703.17;;;1.31;74.45
64460;BME280;50828;53.756;21.140;2023-02-22T00:34:40;99709.08;;;1.31;74.43
64460;BME280;50828;53.756;21.140;2023-02-22T00:39:49;99713.59;;;1.30;74.58
64460;BME280;50828;53.756;21.140;2023-02-22T00:44:59;99722.62;;;1.29;74.55
64460;BME280;50828;53.756;21.140;2023-02-22T00:50:08;99727.31;;;1.29;74.54
64460;BME280;50828;53.756;21.140;2023-02-22T00:55:19;99735.98;;;1.28;74.51
64460;BME280;50828;53.756;21.140;2023-02-22T01:00:31;99736.85;;;1.29;74.47
64460;BME280;50828;53.756;21.140;2023-02-22T01:05:41;99735.46;;;1.29;74.61
64460;BME280;50828;53.756;21.140;2023-02-22T01:10:50;99739.11;;;1.28;74.58
64460;BME280;50828;53.756;21.140;2023-02-22T01:15:57;99741.55;;;1.27;74.49
64460;BME280;50828;53.756;21.140;2023-02-22T01:21:10;99746.40;;;1.27;74.65
64460;BME280;50828;53.756;21.140;2023-02-22T01:26:21;99756.14;;;1.26;74.50
64460;BME280;50828;53.756;21.140;2023-02-22T01:31:32;99759.27;;;1.25;74.66
64460;BME280;50828;53.756;21.140;2023-02-22T01:36:40;99765.02;;;1.23;74.44
64460;BME280;50828;53.756;21.140;2023-02-22T01:41:48;99770.91;;;1.22;74.41
64460;BME280;50828;53.756;21.140;2023-02-22T01:47:01;99768.84;;;1.20;74.30
64460;BME280;50828;53.756;21.140;2023-02-22T01:52:11;99779.79;;;1.19;74.25
64460;BME280;50828;53.756;21.140;2023-02-22T01:57:24;99784.67;;;1.16;74.15
64460;BME280;50828;53.756;21.140;2023-02-22T02:02:36;99787.10;;;1.14;74.12
64460;BME280;50828;53.756;21.140;2023-02-22T02:07:49;99790.75;;;1.13;74.00
64460;BME280;50828;53.756;21.140;2023-02-22T02:12:59;99795.62;;;1.12;74.02
64460;BME280;50828;53.756;21.140;2023-02-22T02:18:11;99799.80;;;1.09;74.15
64460;BME280;50828;53.756;21.140;2023-02-22T02:23:48;99802.06;;;1.08;74.01
64460;BME280;50828;53.756;21.140;2023-02-22T02:29:31;99808.83;;;1.06;73.93
64460;BME280;50828;53.756;21.140;2023-02-22T02:34:51;99813.18;;;1.05;74.07
64460;BME280;50828;53.756;21.140;2023-02-22T02:40:14;99819.79;;;1.02;73.91
64460;BME280;50828;53.756;21.140;2023-02-22T02:45:34;99825.70;;;1.00;74.06
64460;BME280;50828;53.756;21.140;2023-02-22T02:50:48;99836.11;;;0.98;73.95
64460;BME280;50828;53.756;21.140;2023-02-22T02:55:59;99839.59;;;0.96;73.97
64460;BME280;50828;53.756;21.140;2023-02-22T03:01:08;99843.41;;;0.93;73.86
64460;BME280;50828;53.756;21.140;2023-02-22T03:06:46;99849.84;;;0.92;73.83
64460;BME280;50828;53.756;21.140;2023-02-22T03:12:06;99852.46;;;0.87;73.85
64460;BME280;50828;53.756;21.140;2023-02-22T03:17:30;99864.78;;;0.86;73.90
64460;BME280;50828;53.756;21.140;2023-02-22T03:22:45;99874.48;;;0.86;73.86
64460;BME280;50828;53.756;21.140;2023-02-22T03:27:59;99880.05;;;0.85;73.65
64460;BME280;50828;53.756;21.140;2023-02-22T03:33:16;99889.94;;;0.82;73.52
64460;BME280;50828;53.756;21.140;2023-02-22T03:38:28;99898.45;;;0.78;73.29
64460;BME280;50828;53.756;21.140;2023-02-22T03:43:41;99910.95;;;0.74;73.22
64460;BME280;50828;53.756;21.140;2023-02-22T03:48:53;99917.89;;;0.71;72.77
64460;BME280;50828;53.756;21.140;2023-02-22T03:54:07;99921.89;;;0.68;72.65
64460;BME280;50828;53.756;21.140;2023-02-22T03:59:26;99923.46;;;0.63;72.14
64460;BME280;50828;53.756;21.140;2023-02-22T04:04:36;99923.13;;;0.61;72.07
64460;BME280;50828;53.756;21.140;2023-02-22T04:09:46;99925.73;;;0.56;71.85
64460;BME280;50828;53.756;21.140;2023-02-22T04:14:55;99932.15;;;0.50;71.96
64460;BME280;50828;53.756;21.140;2023-02-22T04:20:05;99939.09;;;0.46;71.76
64460;BME280;50828;53.756;21.140;2023-02-22T04:25:24;99941.35;;;0.42;71.55
64460;BME280;50828;53.756;21.140;2023-02-22T04:30:33;99948.98;;;0.37;71.30
64460;BME280;50828;53.756;21.140;2023-02-22T04:35:46;99952.27;;;0.35;71.07
64460;BME280;50828;53.756;21.140;2023-02-22T04:40:55;99956.27;;;0.31;71.09
64460;BME280;50828;53.756;21.140;2023-02-22T04:46:11;99958.86;;;0.28;71.10
64460;BME280;50828;53.756;21.140;2023-02-22T04:51:19;99964.43;;;0.26;71.05
64460;BME280;50828;53.756;21.140;2023-02-22T04:56:49;99968.39;;;0.24;71.10
64460;BME280;50828;53.756;21.140;2023-02-22T05:01:59;99973.60;;;0.22;71.14
64460;BME280;50828;53.756;21.140;2023-02-22T05:07:30;99964.41;;;0.20;71.14
64460;BME280;50828;53.756;21.140;2023-02-22T05:13:12;99970.30;;;0.21;71.32
64460;BME280;50828;53.756;21.140;2023-02-22T05:18:23;99977.59;;;0.23;71.23
64460;BME280;50828;53.756;21.140;2023-02-22T05:23:33;99980.36;;;0.24;71.19
64460;BME280;50828;53.756;21.140;2023-02-22T05:28:41;99989.36;;;0.25;71.19
64460;BME280;50828;53.756;21.140;2023-02-22T05:33:50;99987.45;;;0.24;71.11
64460;BME280;50828;53.756;21.140;2023-02-22T05:39:00;99988.66;;;0.25;71.18
64460;BME280;50828;53.756;21.140;2023-02-22T05:44:08;99992.48;;;0.25;71.10
64460;BME280;50828;53.756;21.140;2023-02-22T05:49:17;99994.38;;;0.25;70.92
64460;BME280;50828;53.756;21.140;2023-02-22T05:54:29;99978.45;;;0.12;70.85
64460;BME280;50828;53.756;21.140;2023-02-22T05:59:37;100004.09;;;0.27;70.85
64460;BME280;50828;53.756;21.140;2023-02-22T06:04:48;100000.61;;;0.28;71.01
64460;BME280;50828;53.756;21.140;2023-02-22T06:09:57;99999.23;;;0.27;70.94
64460;BME280;50828;53.756;21.140;2023-02-22T06:15:06;100002.17;;;0.29;70.99
64460;BME280;50828;53.756;21.140;2023-02-22T06:20:16;100007.19;;;0.29;70.77
64460;BME280;50828;53.756;21.140;2023-02-22T06:25:26;100011.52;;;0.30;70.91
64460;BME280;50828;53.756;21.140;2023-02-22T06:30:37;100020.89;;;0.32;70.90
64460;BME280;50828;53.756;21.140;2023-02-22T06:35:47;100031.11;;;0.33;70.70
64460;BME280;50828;53.756;21.140;2023-02-22T06:40:55;100032.84;;;0.35;70.72
64460;BME280;50828;53.756;21.140;2023-02-22T06:46:02;100035.45;;;0.35;70.73
64460;BME280;50828;53.756;21.140;2023-02-22T06:51:10;100036.99;;;0.38;70.77
64460;BME280;50828;53.756;21.140;2023-02-22T06:56:19;100040.63;;;0.40;70.81
64460;BME280;50828;53.756;21.140;2023-02-22T07:01:28;100043.58;;;0.43;70.85
64460;BME280;50828;53.756;21.140;2023-02-22T07:06:36;100052.42;;;0.44;70.74
64460;BME280;50828;53.756;21.140;2023-02-22T07:11:45;100053.63;;;0.46;70.60
64460;BME280;50828;53.756;21.140;2023-02-22T07:16:53;100057.63;;;0.51;70.45
64460;BME280;50828;53.756;21.140;2023-02-22T07:22:01;100058.66;;;0.54;70.53
64460;BME280;50828;53.756;21.140;2023-02-22T07:27:12;100062.12;;;0.57;70.30
64460;BME280;50828;53.756;21.140;2023-02-22T07:32:21;100062.81;;;0.59;70.18
64460;BME280;50828;53.756;21.140;2023-02-22T07:37:30;100063.33;;;0.58;70.16
64460;BME280;50828;53.756;21.140;2023-02-22T07:42:51;100070.61;;;0.59;70.13
64460;BME280;50828;53.756;21.140;2023-02-22T07:48:00;100074.77;;;0.60;70.12
64460;BME280;50828;53.756;21.140;2023-02-22T07:53:12;100077.72;;;0.62;70.16
64460;BME280;50828;53.756;21.140;2023-02-22T07:58:22;100082.56;;;0.64;69.98
64460;BME280;50828;53.756;21.140;2023-02-22T08:03:34;100086.39;;;0.69;70.04
64460;BME280;50828;53.756;21.140;2023-02-22T08:08:42;100093.48;;;0.74;70.02
64460;BME280;50828;53.756;21.140;2023-02-22T08:13:50;100093.66;;;0.76;69.57
64460;BME280;50828;53.756;21.140;2023-02-22T08:18:57;100096.27;;;0.81;69.63
64460;BME280;50828;53.756;21.140;2023-02-22T08:24:07;100105.62;;;0.87;69.68
64460;BME280;50828;53.756;21.140;2023-02-22T08:29:16;100103.70;;;0.93;69.68
64460;BME280;50828;53.756;21.140;2023-02-22T08:34:24;100111.67;;;0.96;69.59
64460;BME280;50828;53.756;21.140;2023-02-22T08:39:33;100110.81;;;0.98;69.48
64460;BME280;50828;53.756;21.140;2023-02-22T08:44:41;100116.71;;;0.99;69.31
64460;BME280;50828;53.756;21.140;2023-02-22T08:49:50;100115.34;;;0.99;69.05
64460;BME280;50828;53.756;21.140;2023-02-22T08:54:57;100114.98;;;1.00;69.33
64460;BME280;50828;53.756;21.140;2023-02-22T09:00:07;100114.27;;;1.01;69.00
64460;BME280;50828;53.756;21.140;2023-02-22T09:05:16;100111.33;;;0.99;69.07
64460;BME280;50828;53.756;21.140;2023-02-22T09:10:27;100115.48;;;1.02;69.00
64460;BME280;50828;53.756;21.140;2023-02-22T09:15:35;100125.71;;;1.06;69.20
64460;BME280;50828;53.756;21.140;2023-02-22T09:20:44;100129.19;;;1.07;69.23
64460;BME280;50828;53.756;21.140;2023-02-22T09:25:52;100134.73;;;1.08;69.13
64460;BME280;50828;53.756;21.140;2023-02-22T09:31:00;100143.92;;;1.08;68.83
64460;BME280;50828;53.756;21.140;2023-02-22T09:36:08;100146.17;;;1.10;68.81
64460;BME280;50828;53.756;21.140;2023-02-22T09:41:19;100155.38;;;1.09;68.87
64460;BME280;50828;53.756;21.140;2023-02-22T09:46:41;100157.45;;;1.11;69.03
64460;BME280;50828;53.756;21.140;2023-02-22T09:51:54;100153.81;;;1.13;68.83
64460;BME280;50828;53.756;21.140;2023-02-22T09:57:08;100151.21;;;1.13;68.84
64460;BME280;50828;53.756;21.140;2023-02-22T10:02:25;100156.41;;;1.16;69.07
64460;BME280;50828;53.756;21.140;2023-02-22T10:07:38;100160.58;;;1.18;68.83
64460;BME280;50828;53.756;21.140;2023-02-22T10:12:52;100162.31;;;1.18;68.81
64460;BME280;50828;53.756;21.140;2023-02-22T10:23:48;100173.05;;;1.19;68.70
64460;BME280;50828;53.756;21.140;2023-02-22T10:29:03;100169.59;;;1.22;68.96
64460;BME280;50828;53.756;21.140;2023-02-22T10:34:15;100170.28;;;1.24;69.07
64460;BME280;50828;53.756;21.140;2023-02-22T10:39:29;100165.42;;;1.25;69.00
64460;BME280;50828;53.756;21.140;2023-02-22T10:44:38;100164.71;;;1.27;69.17
64460;BME280;50828;53.756;21.140;2023-02-22T10:49:49;100169.22;;;1.32;69.29
64460;BME280;50828;53.756;21.140;2023-02-22T10:54:59;100173.91;;;1.34;68.94
64460;BME280;50828;53.756;21.140;2023-02-22T11:00:30;100174.61;;;1.34;68.74
64460;BME280;50828;53.756;21.140;2023-02-22T11:05:39;100174.77;;;1.32;68.86
64460;BME280;50828;53.756;21.140;2023-02-22T11:10:48;100181.89;;;1.31;68.78
64460;BME280;50828;53.756;21.140;2023-02-22T11:15:57;100191.79;;;1.29;68.88
64460;BME280;50828;53.756;21.140;2023-02-22T11:21:07;100186.93;;;1.28;68.85
64460;BME280;50828;53.756;21.140;2023-02-22T11:26:18;100188.15;;;1.26;68.87
64460;BME280;50828;53.756;21.140;2023-02-22T11:31:27;100187.45;;;1.26;68.86
64460;BME280;50828;53.756;21.140;2023-02-22T11:36:39;100189.55;;;1.25;69.01
64460;BME280;50828;53.756;21.140;2023-02-22T11:41:48;100188.15;;;1.25;68.81
64460;BME280;50828;53.756;21.140;2023-02-22T11:46:57;100190.41;;;1.24;68.88
64460;BME280;50828;53.756;21.140;2023-02-22T11:52:20;100190.06;;;1.26;69.05
64460;BME280;50828;53.756;21.140;2023-02-22T11:57:45;100184.67;;;1.25;68.82
64460;BME280;50828;53.756;21.140;2023-02-22T12:03:35;100194.56;;;1.28;68.97
64460;BME280;50828;53.756;21.140;2023-02-22T12:08:55;100202.02;;;1.31;68.75
64460;BME280;50828;53.756;21.140;2023-02-22T12:14:14;100213.13;;;1.34;68.59
64460;BME280;50828;53.756;21.140;2023-02-22T12:19:29;100212.08;;;1.36;68.41
64460;BME280;50828;53.756;21.140;2023-02-22T12:24:41;100214.69;;;1.38;68.22
64460;BME280;50828;53.756;21.140;2023-02-22T12:29:52;100211.73;;;1.41;68.26
64460;BME280;50828;53.756;21.140;2023-02-22T12:35:08;100215.02;;;1.45;67.94
64460;BME280;50828;53.756;21.140;2023-02-22T12:40:23;100204.95;;;1.46;67.96
64460;BME280;50828;53.756;21.140;2023-02-22T12:45:42;100216.41;;;1.50;67.90
64460;BME280;50828;53.756;21.140;2023-02-22T12:50:54;100211.36;;;1.53;67.85
64460;BME280;50828;53.756;21.140;2023-02-22T12:56:17;100211.20;;;1.55;67.40
64460;BME280;50828;53.756;21.140;2023-02-22T13:01:25;100217.09;;;1.56;67.57
64460;BME280;50828;53.756;21.140;2023-02-22T13:06:44;100223.69;;;1.58;67.41
64460;BME280;50828;53.756;21.140;2023-02-22T13:12:01;100224.71;;;1.62;67.50
64460;BME280;50828;53.756;21.140;2023-02-22T13:17:20;100225.75;;;1.64;67.53
64460;BME280;50828;53.756;21.140;2023-02-22T13:22:36;100225.40;;;1.65;67.31
64460;BME280;50828;53.756;21.140;2023-02-22T13:27:51;100230.61;;;1.68;67.63
64460;BME280;50828;53.756;21.140;2023-02-22T13:33:13;100227.65;;;1.70;67.60
64460;BME280;50828;53.756;21.140;2023-02-22T13:38:52;100229.04;;;1.72;67.29
64460;BME280;50828;53.756;21.140;2023-02-22T13:44:33;100229.55;;;1.74;67.21
64460;BME280;50828;53.756;21.140;2023-02-22T13:50:08;100237.70;;;1.78;67.09
64460;BME280;50828;53.756;21.140;2023-02-22T13:55:30;100244.81;;;1.83;66.95
64460;BME280;50828;53.756;21.140;2023-02-22T14:00:44;100242.21;;;1.82;67.02
64460;BME280;50828;53.756;21.140;2023-02-22T14:05:54;100247.93;;;1.87;66.71
64460;BME280;50828;53.756;21.140;2023-02-22T14:11:08;100252.98;;;1.88;66.73
64460;BME280;50828;53.756;21.140;2023-02-22T14:17:25;100257.83;;;1.90;66.54
64460;BME280;50828;53.756;21.140;2023-02-22T14:22:35;100261.81;;;1.92;66.51
64460;BME280;50828;53.756;21.140;2023-02-22T14:27:43;100263.73;;;1.91;66.40
64460;BME280;50828;53.756;21.140;2023-02-22T14:32:52;100272.24;;;1.89;66.44
64460;BME280;50828;53.756;21.140;2023-02-22T14:38:01;100275.19;;;1.86;66.31
64460;BME280;50828;53.756;21.140;2023-02-22T14:43:12;100275.90;;;1.82;66.23
64460;BME280;50828;53.756;21.140;2023-02-22T14:48:29;100275.39;;;1.78;66.31
64460;BME280;50828;53.756;21.140;2023-02-22T14:53:45;100281.30;;;1.75;66.23
64460;BME280;50828;53.756;21.140;2023-02-22T14:59:01;100277.48;;;1.73;66.22
64460;BME280;50828;53.756;21.140;2023-02-22T15:04:23;100284.25;;;1.75;66.18
64460;BME280;50828;53.756;21.140;2023-02-22T15:09:32;100285.64;;;1.77;66.29
64460;BME280;50828;53.756;21.140;2023-02-22T15:14:42;100286.52;;;1.74;66.25
64460;BME280;50828;53.756;21.140;2023-02-22T15:19:53;100286.35;;;1.69;66.05
64460;BME280;50828;53.756;21.140;2023-02-22T15:25:03;100289.30;;;1.65;66.05
64460;BME280;50828;53.756;21.140;2023-02-22T15:30:19;100290.70;;;1.59;65.97
64460;BME280;50828;53.756;21.140;2023-02-22T15:35:30;100293.48;;;1.55;66.05
64460;BME280;50828;53.756;21.140;2023-02-22T15:40:39;100294.16;;;1.48;66.03
64460;BME280;50828;53.756;21.140;2023-02-22T15:45:50;100297.47;;;1.44;66.00
64460;BME280;50828;53.756;21.140;2023-02-22T15:51:06;100297.64;;;1.40;66.00
64460;BME280;50828;53.756;21.140;2023-02-22T15:56:18;100297.48;;;1.36;65.99
64460;BME280;50828;53.756;21.140;2023-02-22T16:01:38;100297.30;;;1.29;66.03
64460;BME280;50828;53.756;21.140;2023-02-22T16:06:48;100304.74;;;1.27;66.19
64460;BME280;50828;53.756;21.140;2023-02-22T16:12:20;100311.69;;;1.25;66.24
64460;BME280;50828;53.756;21.140;2023-02-22T16:17:35;100315.67;;;1.22;66.39
64460;BME280;50828;53.756;21.140;2023-02-22T16:23:04;100323.48;;;1.20;66.48
64460;BME280;50828;53.756;21.140;2023-02-22T16:28:30;100321.91;;;1.16;66.55
64460;BME280;50828;53.756;21.140;2023-02-22T16:33:41;100329.20;;;1.15;66.65
64460;BME280;50828;53.756;21.140;2023-02-22T16:38:51;100327.27;;;1.11;66.76
64460;BME280;50828;53.756;21.140;2023-02-22T16:43:59;100324.31;;;1.01;66.71
64460;BME280;50828;53.756;21.140;2023-02-22T16:49:07;100342.55;;;1.07;66.65
64460;BME280;50828;53.756;21.140;2023-02-22T16:54:20;100343.75;;;1.03;66.61
64460;BME280;50828;53.756;21.140;2023-02-22T16:59:31;100345.98;;;1.00;66.60
64460;BME280;50828;53.756;21.140;2023-02-22T17:04:43;100350.48;;;0.96;66.69
64460;BME280;50828;53.756;21.140;2023-02-22T17:09:54;100349.08;;;0.92;66.61
64460;BME280;50828;53.756;21.140;2023-02-22T17:15:03;100348.56;;;0.88;66.78
64460;BME280;50828;53.756;21.140;2023-02-22T17:20:12;100352.36;;;0.84;66.82
64460;BME280;50828;53.756;21.140;2023-02-22T17:25:23;100356.69;;;0.83;66.78
64460;BME280;50828;53.756;21.140;2023-02-22T17:30:32;100358.07;;;0.79;66.69
64460;BME280;50828;53.756;21.140;2023-02-22T17:35:40;100362.20;;;0.76;66.76
64460;BME280;50828;53.756;21.140;2023-02-22T17:40:49;100360.12;;;0.72;66.79
64460;BME280;50828;53.756;21.140;2023-02-22T17:45:59;100351.27;;;0.68;66.83
64460;BME280;50828;53.756;21.140;2023-02-22T17:51:13;100356.45;;;0.66;66.79
64460;BME280;50828;53.756;21.140;2023-02-22T17:56:20;100362.17;;;0.64;66.93
64460;BME280;50828;53.756;21.140;2023-02-22T18:01:30;100373.95;;;0.62;66.95
64460;BME280;50828;53.756;21.140;2023-02-22T18:06:38;100380.51;;;0.58;67.05
64460;BME280;50828;53.756;21.140;2023-02-22T18:11:46;100383.45;;;0.55;67.09
64460;BME280;50828;53.756;21.140;2023-02-22T18:16:53;100383.96;;;0.53;67.15
64460;BME280;50828;53.756;21.140;2023-02-22T18:22:01;100382.39;;;0.51;67.21
64460;BME280;50828;53.756;21.140;2023-02-22T18:27:08;100382.39;;;0.49;67.17
64460;BME280;50828;53.756;21.140;2023-02-22T18:32:16;100386.00;;;0.45;67.23
64460;BME280;50828;53.756;21.140;2023-02-22T18:37:24;100394.83;;;0.44;67.38
64460;BME280;50828;53.756;21.140;2023-02-22T18:42:33;100400.01;;;0.42;67.42
64460;BME280;50828;53.756;21.140;2023-02-22T18:47:42;100400.87;;;0.41;67.52
64460;BME280;50828;53.756;21.140;2023-02-22T18:52:50;100400.52;;;0.40;67.45
64460;BME280;50828;53.756;21.140;2023-02-22T18:58:00;100401.56;;;0.40;67.58
64460;BME280;50828;53.756;21.140;2023-02-22T19:03:09;100395.32;;;0.41;67.67
64460;BME280;50828;53.756;21.140;2023-02-22T19:08:17;100384.90;;;0.36;67.77
64460;BME280;50828;53.756;21.140;2023-02-22T19:13:24;100390.64;;;0.39;67.70
64460;BME280;50828;53.756;21.140;2023-02-22T19:18:32;100383.52;;;0.37;67.80
64460;BME280;50828;53.756;21.140;2023-02-22T19:23:40;100378.14;;;0.36;67.80
64460;BME280;50828;53.756;21.140;2023-02-22T19:28:51;100380.90;;;0.33;67.81
64460;BME280;50828;53.756;21.140;2023-02-22T19:34:03;100382.12;;;0.32;67.96
64460;BME280;50828;53.756;21.140;2023-02-22T19:39:10;100384.71;;;0.32;67.89
64460;BME280;50828;53.756;21.140;2023-02-22T19:44:18;100389.73;;;0.32;67.96
64460;BME280;50828;53.756;21.140;2023-02-22T19:49:25;100394.21;;;0.30;68.01
64460;BME280;50828;53.756;21.140;2023-02-22T19:54:34;100395.94;;;0.28;67.91
64460;BME280;50828;53.756;21.140;2023-02-22T19:59:41;100398.36;;;0.27;67.86
64460;BME280;50828;53.756;21.140;2023-02-22T20:04:50;100397.84;;;0.25;67.84
64460;BME280;50828;53.756;21.140;2023-02-22T20:10:00;100399.21;;;0.24;67.87
64460;BME280;50828;53.756;21.140;2023-02-22T20:15:09;100399.36;;;0.21;67.73
64460;BME280;50828;53.756;21.140;2023-02-22T20:20:18;100397.77;;;0.19;67.62
64460;BME280;50828;53.756;21.140;2023-02-22T20:25:26;100401.77;;;0.18;67.51
64460;BME280;50828;53.756;21.140;2023-02-22T20:30:35;100406.26;;;0.16;67.40
64460;BME280;50828;53.756;21.140;2023-02-22T20:35:43;100410.05;;;0.13;67.26
64460;BME280;50828;53.756;21.140;2023-02-22T20:40:51;100414.37;;;0.12;67.26
64460;BME280;50828;53.756;21.140;2023-02-22T20:46:01;100414.86;;;0.08;67.17
64460;BME280;50828;53.756;21.140;2023-02-22T20:51:11;100418.85;;;0.08;67.15
64460;BME280;50828;53.756;21.140;2023-02-22T20:56:20;100416.05;;;0.06;67.10
64460;BME280;50828;53.756;21.140;2023-02-22T21:01:28;100419.34;;;0.04;66.97
64460;BME280;50828;53.756;21.140;2023-02-22T21:06:37;100418.63;;;0.01;66.86
64460;BME280;50828;53.756;21.140;2023-02-22T21:11:46;100414.45;;;-0.02;66.52
64460;BME280;50828;53.756;21.140;2023-02-22T21:16:53;100416.65;;;-0.07;66.47
64460;BME280;50828;53.756;21.140;2023-02-22T21:22:01;100416.25;;;-0.14;66.42
64460;BME280;50828;53.756;21.140;2023-02-22T21:27:13;100421.05;;;-0.20;66.23
64460;BME280;50828;53.756;21.140;2023-02-22T21:32:20;100429.14;;;-0.25;66.10
64460;BME280;50828;53.756;21.140;2023-02-22T21:37:28;100430.64;;;-0.31;66.19
64460;BME280;50828;53.756;21.140;2023-02-22T21:42:36;100424.17;;;-0.39;66.21
64460;BME280;50828;53.756;21.140;2023-02-22T21:47:43;100423.95;;;-0.43;66.02
64460;BME280;50828;53.756;21.140;2023-02-22T21:52:52;100426.33;;;-0.49;65.99
64460;BME280;50828;53.756;21.140;2023-02-22T21:57:59;100426.45;;;-0.52;66.10
64460;BME280;50828;53.756;21.140;2023-02-22T22:03:07;100431.26;;;-0.57;66.06
64460;BME280;50828;53.756;21.140;2023-02-22T22:08:19;100427.58;;;-0.61;66.09
64460;BME280;50828;53.756;21.140;2023-02-22T22:13:30;100422.70;;;-0.66;66.30
64460;BME280;50828;53.756;21.140;2023-02-22T22:18:38;100430.80;;;-0.67;66.11
64460;BME280;50828;53.756;21.140;2023-02-22T22:23:47;100428.00;;;-0.70;66.05
64460;BME280;50828;53.756;21.140;2023-02-22T22:28:56;100425.55;;;-0.74;66.00
64460;BME280;50828;53.756;21.140;2023-02-22T22:34:04;100423.09;;;-0.78;65.91
64460;BME280;50828;53.756;21.140;2023-02-22T22:39:12;100419.08;;;-0.81;65.71
64460;BME280;50828;53.756;21.140;2023-02-22T22:44:19;100412.61;;;-0.86;65.72
64460;BME280;50828;53.756;21.140;2023-02-22T22:49:27;100413.95;;;-0.91;65.53
64460;BME280;50828;53.756;21.140;2023-02-22T22:54:37;100414.05;;;-0.97;65.35
64460;BME280;50828;53.756;21.140;2023-02-22T22:59:44;100410.54;;;-1.02;65.39
64460;BME280;50828;53.756;21.140;2023-02-22T23:04:52;100405.45;;;-1.07;65.12
64460;BME280;50828;53.756;21.140;2023-02-22T23:10:00;100409.39;;;-1.12;65.12
64460;BME280;50828;53.756;21.140;2023-02-22T23:15:09;100417.09;;;-1.18;64.81
64460;BME280;50828;53.756;21.140;2023-02-22T23:20:18;100420.10;;;-1.25;64.89
64460;BME280;50828;53.756;21.140;2023-02-22T23:25:27;100406.94;;;-1.42;64.65
64460;BME280;50828;53.756;21.140;2023-02-22T23:30:34;100429.48;;;-1.34;64.81
64460;BME280;50828;53.756;21.140;2023-02-22T23:35:47;100432.02;;;-1.40;64.73
64460;BME280;50828;53.756;21.140;2023-02-22T23:40:55;100435.92;;;-1.44;64.64
64460;BME280;50828;53.756;21.140;2023-02-22T23:46:09;100437.23;;;-1.49;64.68
64460;BME280;50828;53.756;21.140;2023-02-22T23:51:18;100432.85;;;-1.54;64.50
64460;BME280;50828;53.756;21.140;2023-02-22T23:56:30;100432.80;;;-1.58;64.50
